Weather at Almansa Airport

Public forecast

Using degrees Celsius for public forecast. Weather courtesy of forecast.io.

Closest aviation weather report (METAR) to Almansa Airport

Closest report is Albacete Airport / Los Llanos Air Base, 35.2 nm (65.2 km) W. Retrieved 2021/06/19 20:30 UTC (0 seconds ago):

LEAB 192030Z 21003KT 170V240 9999 FEW030TCU SCT045 19/16 Q1017 TEMPO TSRA

Closest aviation forecast (TAF) to Almansa Airport

Closest forecast is Albacete Airport / Los Llanos Air Base, 35.2 nm (65.2 km) W. Retrieved 2021/06/19 18:27 UTC (2 hours ago):

TAF LEAB 191700Z 1918/2018 32010KT 9999 SCT040 TX27/2015Z TN13/2005Z PROB40 TEMPO 1918/1924 4000 SHRA RA SCT035TCU PROB30 TEMPO 1918/1921 4000 TSRA SCT035CB TEMPO 1922/2002 VRB05KT BECMG 2001/2002 26012KT PROB40 TEMPO 2006/2016 26012G25KT PROB40 TEMPO 2016/2018 32012G25KT